Teruel, Spain
Current Conditions -  °F | °C
As of 8:30 AM on Thursday 23 Oct 2014 (Local Time) from LETL Reporting Station
Clear Clear  
Wind Chill: 43°   Ceiling: Unl
Heat Index: 43°   Visibility: 6mi
Dew Point: 16°   Wind: 1mph
Humidity: 34%   Direction: 270°W
Pressure: 30.33"   Gusts: NA
Location:  40.34°N, 1.11°W
Report Text: LETL 230630Z AUTO 27001KT CAVOK 06/M09 Q1027
Loading
Personal Weather Stations






























Interactive Weather Map
Tropical Storm Tracking
New forecast layout! Learn more

10-Day Weather Forecast

Advertisements
Track Severe Weather on mobile